Time;durP1;ratioP1;P1;durP2;ratioP2;P2;SDS_P1;SDS_P2;PMS_P1;PMS_P2;Temp;Humidity;BMP_temperature;BMP_pressure;BME280_temperature;BME280_humidity;BME280_pressure;Samples;Min_cycle;Max_cycle;Signal;HPM_P1;HPM_P2
2022/06/12 00:00:46;;;;;;;2.83;0.82;;;17.10;94.40;;;;;;4947762;28;20033;-34
2022/06/12 00:03:15;;;;;;;2.75;0.90;;;17.00;94.50;;;;;;4948782;29;20033;-35
2022/06/12 00:05:43;;;;;;;2.40;0.93;;;17.00;94.60;;;;;;4948221;29;20037;-35
2022/06/12 00:08:09;;;;;;;2.42;0.93;;;17.00;94.60;;;;;;4947691;28;20107;-34
2022/06/12 00:10:36;;;;;;;3.08;0.95;;;17.00;94.70;;;;;;4947723;28;20538;-35
2022/06/12 00:13:06;;;;;;;4.07;1.00;;;16.90;94.70;;;;;;4948970;28;20078;-35
2022/06/12 00:15:32;;;;;;;3.08;1.13;;;16.90;94.70;;;;;;4947226;28;20023;-34
2022/06/12 00:17:58;;;;;;;2.88;1.10;;;16.90;94.70;;;;;;4948449;28;20386;-35
2022/06/12 00:20:24;;;;;;;1.77;0.77;;;16.80;94.80;;;;;;4948350;28;20038;-34
2022/06/12 00:22:51;;;;;;;2.78;1.02;;;16.80;94.80;;;;;;4948081;28;20028;-35
2022/06/12 00:25:18;;;;;;;1.95;0.70;;;16.70;94.80;;;;;;4948644;29;20221;-34
2022/06/12 00:27:44;;;;;;;2.53;0.82;;;16.70;94.80;;;;;;4947829;28;20047;-35
2022/06/12 00:30:14;;;;;;;4.00;1.23;;;16.60;94.90;;;;;;4947970;29;20118;-35
2022/06/12 00:32:40;;;;;;;2.50;0.90;;;16.60;95.00;;;;;;4948381;28;20031;-35
2022/06/12 00:35:07;;;;;;;2.45;0.98;;;16.50;95.10;;;;;;4947276;29;20789;-35
2022/06/12 00:37:34;;;;;;;2.10;0.98;;;16.50;95.20;;;;;;4948177;28;20406;-35
2022/06/12 00:39:59;;;;;;;2.30;0.90;;;16.50;95.30;;;;;;4948740;29;20027;-35
2022/06/12 00:42:33;;;;;;;4.13;1.17;;;16.40;95.30;;;;;;4946703;29;20054;-35
2022/06/12 00:45:20;;;;;;;3.90;1.05;;;16.40;95.40;;;;;;4947969;28;20027;-35
2022/06/12 00:47:46;;;;;;;4.90;1.25;;;16.40;95.50;;;;;;4947437;29;20141;-33
2022/06/12 00:50:11;;;;;;;2.35;0.90;;;16.30;95.60;;;;;;4947650;29;20480;-33
2022/06/12 00:52:47;;;;;;;1.65;1.00;;;16.30;95.70;;;;;;4947653;29;20482;-34
2022/06/12 00:55:29;;;;;;;3.17;0.90;;;16.20;95.80;;;;;;4946943;28;20043;-34
2022/06/12 00:58:14;;;;;;;2.92;1.10;;;16.20;95.80;;;;;;4947754;28;20436;-34
2022/06/12 01:00:41;;;;;;;6.45;1.20;;;16.10;96.00;;;;;;4955129;28;20047;-34
2022/06/12 01:03:07;;;;;;;3.17;1.30;;;16.10;96.00;;;;;;4958903;28;20042;-35
2022/06/12 01:08:17;;;;;;;3.90;1.30;;;16.10;96.30;;;;;;4952285;29;20074;-34
2022/06/12 01:10:46;;;;;;;3.72;1.30;;;16.00;96.30;;;;;;4951130;28;20455;-34
2022/06/12 01:13:16;;;;;;;3.65;1.30;;;16.00;96.50;;;;;;4951961;28;20028;-33
2022/06/12 01:15:52;;;;;;;3.92;1.30;;;16.00;96.60;;;;;;4952016;28;20027;-34
2022/06/12 01:18:21;;;;;;;4.20;1.40;;;16.00;96.70;;;;;;4951062;28;20046;-34
2022/06/12 01:20:59;;;;;;;5.15;1.55;;;15.90;96.80;;;;;;4951114;28;20031;-33
2022/06/12 01:23:43;;;;;;;3.13;1.20;;;15.90;96.90;;;;;;4940521;29;20031;-34
2022/06/12 01:26:20;;;;;;;3.55;1.23;;;15.90;97.00;;;;;;4951001;28;20035;-34
2022/06/12 01:28:53;;;;;;;5.97;1.73;;;15.90;97.10;;;;;;4941885;29;20070;-34
2022/06/12 01:31:48;;;;;;;4.30;1.40;;;15.80;97.10;;;;;;4950311;28;20057;-34
2022/06/12 01:34:24;;;;;;;5.38;1.27;;;15.80;97.20;;;;;;4944517;29;20027;-33
2022/06/12 01:37:08;;;;;;;5.78;1.80;;;15.80;97.20;;;;;;4951763;28;20039;-34
2022/06/12 01:39:52;;;;;;;5.03;1.60;;;15.70;97.30;;;;;;4950718;29;20032;-34
2022/06/12 01:42:21;;;;;;;3.30;1.30;;;15.60;97.30;;;;;;4951318;29;20027;-35
2022/06/12 01:45:12;;;;;;;4.82;1.83;;;15.60;97.40;;;;;;4951039;29;20063;-34
2022/06/12 01:47:55;;;;;;;5.05;1.60;;;15.60;97.60;;;;;;4951151;29;20506;-34
2022/06/12 01:50:35;;;;;;;6.22;2.05;;;15.60;97.70;;;;;;4951338;28;20038;-35
2022/06/12 01:53:35;;;;;;;3.42;1.50;;;15.60;97.80;;;;;;4950790;29;20031;-34
2022/06/12 01:56:24;;;;;;;4.05;1.98;;;15.60;98.00;;;;;;4931611;29;20119;-34
2022/06/12 01:59:06;;;;;;;6.32;1.77;;;15.50;98.00;;;;;;4950250;29;20088;-34
2022/06/12 02:01:43;;;;;;;3.88;1.50;;;15.50;98.10;;;;;;4950005;29;20023;-35
2022/06/12 02:04:32;;;;;;;4.88;1.65;;;15.40;98.30;;;;;;4950708;29;20027;-34
2022/06/12 02:07:12;;;;;;;3.70;1.40;;;15.40;98.50;;;;;;4950257;29;20043;-35
2022/06/12 02:09:42;;;;;;;7.00;1.52;;;15.30;98.60;;;;;;4947619;28;20031;-34
2022/06/12 02:15:17;;;;;;;3.25;1.50;;;15.30;99.00;;;;;;4950322;29;20552;-34
2022/06/12 02:17:49;;;;;;;5.68;1.50;;;15.30;99.20;;;;;;4950001;29;20423;-35
2022/06/12 02:20:18;;;;;;;5.70;1.50;;;15.30;99.20;;;;;;4949620;29;20435;-34
2022/06/12 02:22:45;;;;;;;3.80;1.75;;;15.30;99.30;;;;;;4950529;28;20924;-34
2022/06/12 02:25:16;;;;;;;4.13;1.70;;;15.20;99.40;;;;;;4950396;29;20483;-33
2022/06/12 02:27:49;;;;;;;7.30;2.38;;;15.20;99.60;;;;;;4949282;28;20031;-33
2022/06/12 02:30:43;;;;;;;3.40;1.42;;;15.20;99.70;;;;;;4949940;28;20510;-33
2022/06/12 02:33:17;;;;;;;5.57;1.80;;;15.20;99.90;;;;;;4947742;29;20054;-33
2022/06/12 02:35:56;;;;;;;3.97;1.70;;;15.10;99.90;;;;;;4949335;29;20414;-33
2022/06/12 02:38:29;;;;;;;4.95;2.42;;;15.10;99.90;;;;;;4949715;29;20501;-34
2022/06/12 02:41:04;;;;;;;4.72;1.65;;;15.10;99.90;;;;;;4950340;29;20035;-35
2022/06/12 02:43:33;;;;;;;6.55;1.70;;;15.10;99.90;;;;;;4948580;29;20074;-34
2022/06/12 02:46:08;;;;;;;3.95;1.80;;;15.10;99.90;;;;;;4949560;29;20047;-34
2022/06/12 02:48:34;;;;;;;4.57;1.90;;;15.10;99.90;;;;;;4948670;29;20039;-34
2022/06/12 02:51:20;;;;;;;5.68;1.80;;;15.00;99.90;;;;;;4950284;29;20470;-34
2022/06/12 02:54:03;;;;;;;7.38;1.92;;;15.00;99.90;;;;;;4949836;28;20550;-33
2022/06/12 02:56:31;;;;;;;5.20;1.88;;;15.00;99.90;;;;;;4948933;29;20075;-33
2022/06/12 02:58:57;;;;;;;3.53;1.80;;;15.00;99.90;;;;;;4950585;29;20050;-33
2022/06/12 03:01:32;;;;;;;5.80;1.75;;;15.10;99.90;;;;;;4949793;29;20501;-33
2022/06/12 03:03:57;;;;;;;4.45;1.60;;;15.00;99.90;;;;;;4949229;29;20027;-33
2022/06/12 03:06:27;;;;;;;5.20;1.83;;;15.00;99.90;;;;;;4949548;29;20050;-34
2022/06/12 03:08:56;;;;;;;6.70;2.00;;;15.00;99.90;;;;;;4949647;28;20027;-33
2022/06/12 03:11:36;;;;;;;5.70;2.00;;;15.00;99.90;;;;;;4948442;28;20019;-33
2022/06/12 03:14:08;;;;;;;6.90;2.05;;;15.00;99.90;;;;;;4949868;28;20027;-34
2022/06/12 03:16:36;;;;;;;4.22;1.77;;;14.90;99.90;;;;;;4948664;28;20066;-34
2022/06/12 03:19:11;;;;;;;4.88;1.95;;;14.90;99.90;;;;;;4949891;28;20090;-34
2022/06/12 03:21:50;;;;;;;6.45;2.03;;;14.90;99.90;;;;;;4948566;28;20035;-34
2022/06/12 03:24:46;;;;;;;4.22;2.08;;;14.90;99.90;;;;;;4948958;28;20046;-34
2022/06/12 03:27:24;;;;;;;4.93;1.80;;;14.90;99.90;;;;;;4949888;28;20035;-33
2022/06/12 03:29:49;;;;;;;3.47;1.90;;;14.90;99.90;;;;;;4949260;28;20027;-35
2022/06/12 03:32:20;;;;;;;5.15;2.08;;;14.90;99.90;;;;;;4947998;29;20031;-34
2022/06/12 03:35:14;;;;;;;7.20;2.20;;;14.80;99.90;;;;;;4948651;28;20535;-33
2022/06/12 03:37:56;;;;;;;7.50;2.30;;;14.80;99.90;;;;;;4948683;28;20482;-33
2022/06/12 03:40:40;;;;;;;5.10;2.40;;;14.80;99.90;;;;;;4948854;29;20031;-33
2022/06/12 03:43:10;;;;;;;9.23;2.50;;;14.80;99.90;;;;;;4949370;28;20058;-35
2022/06/12 03:45:51;;;;;;;4.90;1.75;;;14.80;99.90;;;;;;4947809;28;20035;-33
2022/06/12 03:48:24;;;;;;;5.43;2.10;;;14.80;99.90;;;;;;4948667;28;20970;-35
2022/06/12 03:51:21;;;;;;;7.00;2.30;;;14.80;99.90;;;;;;4948687;28;20039;-34
2022/06/12 03:54:11;;;;;;;7.30;2.20;;;14.80;99.90;;;;;;4930597;29;20068;-34
2022/06/12 03:59:46;;;;;;;5.53;2.30;;;14.80;99.90;;;;;;4947567;29;20101;-33
2022/06/12 04:02:16;;;;;;;5.25;2.13;;;14.80;99.90;;;;;;4948764;28;20127;-34
2022/06/12 04:04:45;;;;;;;5.72;2.13;;;14.80;99.90;;;;;;4948628;29;20020;-35
2022/06/12 04:07:14;;;;;;;5.38;2.30;;;14.80;99.90;;;;;;4948130;28;20066;-34
2022/06/12 04:09:47;;;;;;;6.95;2.78;;;14.80;99.90;;;;;;4947745;28;20039;-33
2022/06/12 04:12:24;;;;;;;5.60;2.38;;;14.80;99.90;;;;;;4948038;28;20463;-33
2022/06/12 04:15:01;;;;;;;11.23;2.53;;;14.80;99.90;;;;;;4948112;28;20023;-33
2022/06/12 04:17:30;;;;;;;6.18;2.10;;;14.80;99.90;;;;;;4947655;28;20106;-34
2022/06/12 04:19:59;;;;;;;5.68;2.10;;;14.80;99.90;;;;;;4947426;29;20034;-34
2022/06/12 04:22:32;;;;;;;7.07;2.60;;;14.90;99.90;;;;;;4947593;28;20027;-34
2022/06/12 04:25:06;;;;;;;5.45;2.60;;;14.80;99.90;;;;;;4949178;29;20116;-34
2022/06/12 04:27:36;;;;;;;6.25;2.65;;;14.80;99.90;;;;;;4946940;28;20031;-33
2022/06/12 04:30:26;;;;;;;7.35;2.83;;;14.80;99.90;;;;;;4948613;28;20035;-34
2022/06/12 04:33:29;;;;;;;4.53;2.50;;;14.80;99.90;;;;;;4948127;29;20118;-34
2022/06/12 04:35:57;;;;;;;6.63;2.42;;;14.70;99.90;;;;;;4947672;29;20034;-34
2022/06/12 04:38:25;;;;;;;7.70;2.53;;;14.70;99.90;;;;;;4947501;28;20027;-34
2022/06/12 04:40:52;;;;;;;7.32;2.58;;;14.70;99.90;;;;;;4948337;28;20451;-35
2022/06/12 04:43:17;;;;;;;5.63;2.83;;;14.70;99.90;;;;;;4947923;28;20019;-34
2022/06/12 04:45:44;;;;;;;3.88;2.13;;;14.70;99.90;;;;;;4947752;29;20492;-34
2022/06/12 04:48:15;;;;;;;7.68;2.22;;;14.70;99.90;;;;;;4947054;28;20031;-36
2022/06/12 04:50:42;;;;;;;7.00;2.40;;;14.70;99.90;;;;;;4948456;28;20070;-34
2022/06/12 04:53:07;;;;;;;6.20;2.30;;;14.80;99.90;;;;;;4947895;28;20097;-34
2022/06/12 04:55:33;;;;;;;5.88;2.70;;;14.80;99.90;;;;;;4946509;29;20413;-34
2022/06/12 04:58:00;;;;;;;5.35;2.63;;;14.80;99.90;;;;;;4948237;28;20024;-34
2022/06/12 05:00:26;;;;;;;7.20;2.58;;;14.80;99.90;;;;;;4947368;28;20391;-35
2022/06/12 05:02:51;;;;;;;7.00;1.80;;;14.80;99.90;;;;;;4947651;28;20027;-34
2022/06/12 05:05:17;;;;;;;6.25;2.10;;;14.80;99.90;;;;;;4947710;29;20090;-34
2022/06/12 05:07:42;;;;;;;5.82;2.08;;;14.90;99.90;;;;;;4947886;29;20035;-34
2022/06/12 05:10:10;;;;;;;5.72;2.03;;;14.80;99.90;;;;;;4947088;29;20022;-35
2022/06/12 05:12:36;;;;;;;7.22;2.33;;;14.90;99.90;;;;;;4947818;29;20154;-35
2022/06/12 05:15:01;;;;;;;5.68;1.98;;;14.90;99.90;;;;;;4947673;29;20446;-33
2022/06/12 05:17:27;;;;;;;5.18;2.22;;;14.90;99.90;;;;;;4947071;29;20522;-33
2022/06/12 05:19:53;;;;;;;4.72;1.92;;;15.00;99.90;;;;;;4947805;29;20371;-33
2022/06/12 05:22:22;;;;;;;6.32;2.42;;;15.00;99.90;;;;;;4947511;29;20036;-34
2022/06/12 05:24:48;;;;;;;6.97;2.67;;;15.00;99.90;;;;;;4946443;28;20032;-34
2022/06/12 05:27:17;;;;;;;5.78;2.40;;;15.00;99.90;;;;;;4947321;28;20039;-33
2022/06/12 05:29:44;;;;;;;7.40;2.47;;;15.10;99.90;;;;;;4947240;28;20028;-34
2022/06/12 05:32:15;;;;;;;6.80;2.42;;;15.20;99.90;;;;;;4947376;28;20035;-35
2022/06/12 05:34:41;;;;;;;6.30;2.65;;;15.20;99.90;;;;;;4947851;29;20558;-35
2022/06/12 05:37:07;;;;;;;6.40;2.40;;;15.20;99.90;;;;;;4947501;28;20034;-34
2022/06/12 05:39:33;;;;;;;8.98;2.50;;;15.30;99.90;;;;;;4947035;29;20090;-35
2022/06/12 05:41:58;;;;;;;5.50;2.05;;;15.30;99.90;;;;;;4947964;28;20023;-34
2022/06/12 05:44:24;;;;;;;5.10;2.83;;;15.40;99.90;;;;;;4946787;28;20027;-34
2022/06/12 05:46:50;;;;;;;4.00;2.25;;;15.50;99.90;;;;;;4950491;28;20027;-34
2022/06/12 05:49:16;;;;;;;6.20;2.30;;;15.50;99.90;;;;;;4950878;28;20702;-34
2022/06/12 05:51:42;;;;;;;8.23;2.40;;;15.60;99.90;;;;;;4950000;28;20038;-34
2022/06/12 05:54:07;;;;;;;7.05;2.60;;;15.60;99.90;;;;;;4950939;28;20025;-33
2022/06/12 05:56:34;;;;;;;9.10;2.83;;;15.70;99.90;;;;;;4950330;28;20031;-34
2022/06/12 05:59:00;;;;;;;7.35;3.00;;;15.70;99.90;;;;;;4950248;29;20383;-34
2022/06/12 06:01:27;;;;;;;7.00;2.55;;;15.80;99.90;;;;;;4950115;28;20078;-34
2022/06/12 06:03:52;;;;;;;7.15;3.00;;;15.80;99.90;;;;;;4950792;28;20491;-34
2022/06/12 06:06:23;;;;;;;9.55;3.42;;;15.90;99.90;;;;;;4949908;29;20031;-33
2022/06/12 06:08:49;;;;;;;9.20;2.72;;;15.90;99.90;;;;;;4950911;28;20027;-34
2022/06/12 06:11:14;;;;;;;7.82;2.60;;;16.00;99.90;;;;;;4950351;28;20070;-33
2022/06/12 06:13:40;;;;;;;6.93;2.75;;;16.00;99.90;;;;;;4949038;29;20475;-34
2022/06/12 06:16:07;;;;;;;9.85;3.22;;;16.00;99.90;;;;;;4950610;29;20106;-34
2022/06/12 06:18:33;;;;;;;7.38;2.72;;;16.10;99.90;;;;;;4949977;28;20074;-34
2022/06/12 06:20:59;;;;;;;8.98;3.00;;;16.20;99.90;;;;;;4949402;28;20022;-33
2022/06/12 06:23:24;;;;;;;6.38;2.42;;;16.20;99.90;;;;;;4949934;29;20519;-34
2022/06/12 06:25:50;;;;;;;11.02;2.88;;;16.30;99.90;;;;;;4950411;29;20031;-33
2022/06/12 06:28:16;;;;;;;8.80;2.78;;;16.30;99.90;;;;;;4949132;29;20114;-33
2022/06/12 06:30:42;;;;;;;8.15;2.80;;;16.40;99.90;;;;;;4950264;28;20027;-34
2022/06/12 06:33:09;;;;;;;11.23;3.10;;;16.50;99.90;;;;;;4950115;28;20031;-33
2022/06/12 06:35:35;;;;;;;9.55;2.90;;;16.50;99.90;;;;;;4949075;28;20078;-34
2022/06/12 06:38:01;;;;;;;11.15;3.40;;;16.60;99.90;;;;;;4950071;28;20035;-34
2022/06/12 06:40:29;;;;;;;9.13;2.83;;;16.60;99.90;;;;;;4949382;29;20470;-34
2022/06/12 06:42:55;;;;;;;9.75;3.22;;;16.60;99.90;;;;;;4949873;28;20102;-34
2022/06/12 06:48:07;;;;;;;8.43;3.53;;;16.70;99.90;;;;;;4949746;29;20141;-33
2022/06/12 06:50:34;;;;;;;9.95;3.28;;;16.80;99.90;;;;;;4949283;29;20047;-34
2022/06/12 06:52:59;;;;;;;9.23;3.00;;;16.80;99.90;;;;;;4949594;28;20032;-34
2022/06/12 06:55:26;;;;;;;6.30;2.55;;;16.90;99.90;;;;;;4948944;29;20051;-34
2022/06/12 06:57:52;;;;;;;7.72;3.70;;;16.90;99.90;;;;;;4949233;28;20031;-34
2022/06/12 07:00:22;;;;;;;9.57;3.00;;;17.00;99.90;;;;;;4949461;28;20031;-37
2022/06/12 07:02:48;;;;;;;6.57;3.40;;;17.10;99.90;;;;;;4948839;28;20846;-35
2022/06/12 07:05:15;;;;;;;7.78;2.90;;;17.10;99.90;;;;;;4949385;29;20035;-34
2022/06/12 07:07:41;;;;;;;10.45;2.83;;;17.20;99.90;;;;;;4949444;28;20031;-36
2022/06/12 07:10:10;;;;;;;8.93;3.33;;;17.20;99.90;;;;;;4949523;29;20035;-35
2022/06/12 07:12:36;;;;;;;7.60;2.55;;;17.30;99.90;;;;;;4949028;28;20130;-34
2022/06/12 07:15:03;;;;;;;7.50;2.75;;;17.40;99.90;;;;;;4949327;28;20471;-34
2022/06/12 07:17:28;;;;;;;7.22;2.28;;;17.40;99.90;;;;;;4948276;28;20355;-34
2022/06/12 07:19:54;;;;;;;8.13;2.83;;;17.50;99.90;;;;;;4949651;29;20398;-34
2022/06/12 07:22:19;;;;;;;8.10;2.72;;;17.60;99.90;;;;;;4949117;29;20569;-35
2022/06/12 07:24:46;;;;;;;8.40;2.10;;;17.70;99.90;;;;;;4948404;29;20023;-36
2022/06/12 07:27:11;;;;;;;4.18;2.00;;;17.80;99.90;;;;;;4949128;28;20046;-34
2022/06/12 07:29:37;;;;;;;7.20;2.42;;;18.00;99.90;;;;;;4948371;29;20035;-34
2022/06/12 07:32:03;;;;;;;6.78;2.40;;;18.20;99.90;;;;;;4949101;29;20023;-35
2022/06/12 07:34:29;;;;;;;10.95;2.90;;;18.30;99.90;;;;;;4948439;29;20027;-35
2022/06/12 07:36:54;;;;;;;7.07;2.22;;;18.50;99.90;;;;;;4948215;28;20034;-34
2022/06/12 07:39:25;;;;;;;7.88;2.22;;;18.60;99.90;;;;;;4948788;28;20050;-34
2022/06/12 07:41:52;;;;;;;7.90;2.95;;;18.60;99.90;;;;;;4948961;28;20035;-36
2022/06/12 07:44:20;;;;;;;8.35;2.63;;;18.60;99.90;;;;;;4947805;29;20027;-36
2022/06/12 07:46:46;;;;;;;9.15;2.45;;;18.60;99.90;;;;;;4949136;28;20041;-34
2022/06/12 07:49:12;;;;;;;5.97;2.20;;;18.70;99.90;;;;;;4948547;29;20089;-35
2022/06/12 07:51:38;;;;;;;7.63;2.28;;;18.70;99.90;;;;;;4947515;28;20047;-35
2022/06/12 07:54:04;;;;;;;6.10;1.95;;;18.80;99.90;;;;;;4948789;29;20031;-34
2022/06/12 07:56:30;;;;;;;7.53;2.58;;;18.90;99.90;;;;;;4947994;29;20479;-36
2022/06/12 07:58:55;;;;;;;7.20;2.50;;;19.00;99.90;;;;;;4947674;29;20027;-35
2022/06/12 08:01:24;;;;;;;6.65;2.08;;;19.00;99.90;;;;;;4948067;29;20109;-35
2022/06/12 08:03:50;;;;;;;6.57;2.20;;;19.00;99.90;;;;;;4949046;29;20102;-35
2022/06/12 08:06:16;;;;;;;8.30;2.20;;;19.00;99.90;;;;;;4947320;29;20126;-35
2022/06/12 08:08:42;;;;;;;7.97;2.20;;;19.00;99.90;;;;;;4947843;28;20379;-35
2022/06/12 08:11:08;;;;;;;7.45;2.25;;;19.00;99.90;;;;;;4949192;28;20031;-36
2022/06/12 08:13:34;;;;;;;4.90;1.92;;;19.00;99.90;;;;;;4947011;29;20101;-35
2022/06/12 08:16:00;;;;;;;7.00;2.97;;;18.90;99.90;;;;;;4947840;28;20102;-35
2022/06/12 08:18:26;;;;;;;8.10;2.38;;;19.00;99.90;;;;;;4948190;28;20031;-35
2022/06/12 08:20:56;;;;;;;6.80;2.30;;;19.00;99.90;;;;;;4947540;28;20031;-34
2022/06/12 08:23:26;;;;;;;4.85;2.50;;;19.00;99.90;;;;;;4947990;28;20034;-35
2022/06/12 08:26:19;;;;;;;5.80;2.30;;;19.10;99.90;;;;;;4948085;28;20034;-34
2022/06/12 08:28:47;;;;;;;;;;;19.20;99.90;;;;;;4946307;29;20066;-35
2022/06/12 08:31:25;;;;;;;5.75;1.92;;;19.30;99.90;;;;;;4948308;28;19918;-34
2022/06/12 08:33:55;;;;;;;4.35;1.85;;;19.30;99.90;;;;;;4947746;28;20061;-35
2022/06/12 08:36:21;;;;;;;8.73;2.20;;;19.30;99.90;;;;;;4948173;28;20051;-35
2022/06/12 08:38:48;;;;;;;5.00;1.80;;;19.40;99.90;;;;;;4947754;28;20031;-34
2022/06/12 08:41:28;;;;;;;5.40;1.90;;;19.50;99.90;;;;;;4946973;29;20105;-36
2022/06/12 08:44:05;;;;;;;5.18;1.95;;;19.50;99.90;;;;;;4948260;29;20529;-35
2022/06/12 08:46:45;;;;;;;5.47;1.63;;;19.40;99.90;;;;;;4947563;29;20031;-36
2022/06/12 08:49:14;;;;;;;4.57;1.80;;;19.40;99.90;;;;;;4947466;28;20027;-35
2022/06/12 08:51:56;;;;;;;6.03;2.10;;;19.40;99.90;;;;;;4947132;28;20489;-35
2022/06/12 08:54:33;;;;;;;4.30;1.75;;;19.40;99.90;;;;;;4947234;28;20070;-34
2022/06/12 08:57:07;;;;;;;5.45;1.50;;;19.40;99.90;;;;;;4947457;28;20032;-33
2022/06/12 08:59:51;;;;;;;4.80;1.65;;;19.50;99.90;;;;;;4947687;28;20032;-36
2022/06/12 09:02:26;;;;;;;4.25;1.73;;;19.50;99.90;;;;;;4947260;29;20074;-36
2022/06/12 09:04:53;;;;;;;6.63;1.73;;;19.50;99.90;;;;;;4948116;28;20055;-35
2022/06/12 09:07:33;;;;;;;6.35;1.90;;;19.60;99.90;;;;;;4947511;28;20061;-34
2022/06/12 09:10:17;;;;;;;4.78;1.92;;;19.60;99.90;;;;;;4947724;28;20035;-35
2022/06/12 09:12:55;;;;;;;4.78;1.70;;;19.80;99.90;;;;;;4947730;28;20031;-34
2022/06/12 09:15:43;;;;;;;4.85;1.48;;;19.80;99.90;;;;;;4945970;28;20027;-35
2022/06/12 09:18:35;;;;;;;4.13;1.73;;;19.90;99.90;;;;;;4945837;28;20034;-35
2022/06/12 09:21:30;;;;;;;4.70;1.70;;;19.90;99.90;;;;;;4919873;29;20304;-35
2022/06/12 09:24:01;;;;;;;5.45;1.90;;;20.00;99.90;;;;;;4949182;28;20035;-35
2022/06/12 09:26:38;;;;;;;4.18;1.88;;;20.00;99.60;;;;;;4949935;29;20431;-35
2022/06/12 09:29:28;;;;;;;3.33;1.50;;;20.00;99.70;;;;;;4950707;28;20027;-35
2022/06/12 09:32:10;;;;;;;4.45;1.45;;;20.00;99.60;;;;;;4950525;28;20390;-35
2022/06/12 09:34:56;;;;;;;4.22;1.55;;;20.10;99.60;;;;;;4948617;29;20050;-34
2022/06/12 09:38:18;;;;;;;2.83;1.58;;;20.20;99.40;;;;;;4949502;29;20107;-34
2022/06/12 09:41:19;;;;;;;5.73;1.83;;;20.40;98.70;;;;;;4944957;29;20050;-33
2022/06/12 09:44:09;;;;;;;4.15;1.60;;;20.50;98.30;;;;;;4949276;29;20374;-33
2022/06/12 09:46:44;;;;;;;7.25;2.30;;;20.50;97.90;;;;;;4930395;29;20039;-34
2022/06/12 09:49:31;;;;;;;3.65;1.48;;;20.60;97.50;;;;;;4946243;29;20074;-34
2022/06/12 09:52:25;;;;;;;4.72;1.95;;;20.60;97.40;;;;;;4930300;29;20042;-34
2022/06/12 09:54:57;;;;;;;5.90;1.58;;;20.70;97.10;;;;;;4949965;29;20039;-35
2022/06/12 09:57:33;;;;;;;5.25;2.10;;;20.70;97.10;;;;;;4949077;29;20046;-35
2022/06/12 10:00:03;;;;;;;5.95;1.70;;;20.70;96.70;;;;;;4949916;29;20050;-34
2022/06/12 10:02:55;;;;;;;6.43;2.10;;;20.70;96.90;;;;;;4949275;29;20024;-35
2022/06/12 10:05:56;;;;;;;5.68;2.03;;;20.70;96.70;;;;;;4948247;28;20123;-35
2022/06/12 10:08:42;;;;;;;4.30;1.58;;;20.70;96.90;;;;;;4949788;28;20086;-34
2022/06/12 10:11:13;;;;;;;5.15;1.70;;;20.80;97.00;;;;;;4918866;29;20051;-32
2022/06/12 10:13:51;;;;;;;6.55;1.90;;;21.00;97.10;;;;;;4948880;28;20031;-35
2022/06/12 10:16:27;;;;;;;5.57;1.70;;;21.20;97.00;;;;;;4939750;29;20075;-33
2022/06/12 10:18:59;;;;;;;6.47;2.70;;;21.40;97.10;;;;;;4950129;28;20534;-34
2022/06/12 10:21:27;;;;;;;5.95;2.20;;;21.50;96.90;;;;;;4950759;28;20024;-34
2022/06/12 10:23:52;;;;;;;5.47;2.40;;;21.50;96.80;;;;;;4950429;28;20506;-35
2022/06/12 10:26:25;;;;;;;7.68;2.55;;;21.50;96.50;;;;;;4949578;29;20381;-35
2022/06/12 10:29:04;;;;;;;6.55;2.10;;;21.40;96.60;;;;;;4950237;28;20210;-35
2022/06/12 10:31:34;;;;;;;7.20;2.38;;;21.50;96.70;;;;;;4947172;28;20080;-35
2022/06/12 10:34:21;;;;;;;6.03;2.00;;;21.40;96.50;;;;;;4949506;28;20081;-35
2022/06/12 10:36:48;;;;;;;8.50;3.10;;;21.40;96.60;;;;;;4949286;29;20031;-35
2022/06/12 10:39:20;;;;;;;6.90;2.20;;;21.40;96.60;;;;;;4949802;29;20031;-35
2022/06/12 10:41:55;;;;;;;6.68;2.35;;;21.30;96.60;;;;;;4949141;29;20027;-34
2022/06/12 10:44:35;;;;;;;4.53;1.90;;;21.30;96.40;;;;;;4949868;28;20110;-33
2022/06/12 10:47:14;;;;;;;6.22;2.28;;;21.20;96.40;;;;;;4947411;29;20499;-33
2022/06/12 10:49:39;;;;;;;6.72;2.30;;;21.20;96.40;;;;;;4949422;28;20490;-34
2022/06/12 10:52:16;;;;;;;6.35;2.30;;;21.20;96.30;;;;;;4950308;29;20023;-35
2022/06/12 10:54:42;;;;;;;5.13;2.08;;;21.10;96.40;;;;;;4956930;28;20043;-35
2022/06/12 10:57:23;;;;;;;4.00;2.20;;;21.10;96.50;;;;;;4956788;28;20243;-34
2022/06/12 11:00:18;;;;;;;5.50;2.35;;;21.10;96.60;;;;;;4947258;28;20475;-35
2022/06/12 11:03:08;;;;;;;5.78;2.20;;;21.10;96.50;;;;;;4947539;29;20576;-33
2022/06/12 11:06:09;;;;;;;7.00;2.15;;;21.10;96.30;;;;;;4948115;29;20486;-33
2022/06/12 11:08:59;;;;;;;6.22;2.42;;;21.00;96.40;;;;;;4948268;28;20149;-34
2022/06/12 11:11:37;;;;;;;6.97;2.25;;;21.00;96.20;;;;;;4948572;29;20119;-33
2022/06/12 11:14:13;;;;;;;5.70;2.20;;;20.90;96.20;;;;;;4948958;28;20078;-34
2022/06/12 11:17:03;;;;;;;7.57;2.40;;;20.90;96.10;;;;;;4947614;29;20035;-34
2022/06/12 11:19:54;;;;;;;5.45;2.10;;;20.90;96.30;;;;;;4948022;29;20039;-35
2022/06/12 11:22:35;;;;;;;4.28;1.88;;;20.90;96.40;;;;;;4947833;29;20678;-35
2022/06/12 11:25:06;;;;;;;3.92;1.70;;;21.00;96.20;;;;;;4929351;29;20031;-34
2022/06/12 11:28:00;;;;;;;5.00;1.92;;;21.00;96.20;;;;;;4944281;29;20062;-35
2022/06/12 11:30:46;;;;;;;3.97;1.88;;;21.00;96.10;;;;;;4946860;28;20042;-34
2022/06/12 11:33:45;;;;;;;3.75;1.63;;;21.00;96.00;;;;;;4949002;28;20134;-35
2022/06/12 11:36:29;;;;;;;4.45;1.90;;;21.00;95.70;;;;;;4947572;28;20031;-35
2022/06/12 11:39:45;;;;;;;6.60;2.40;;;21.00;95.30;;;;;;4948345;29;20110;-36
2022/06/12 11:42:28;;;;;;;3.40;1.65;;;21.00;94.90;;;;;;4925800;29;20056;-34
2022/06/12 11:45:10;;;;;;;5.30;1.60;;;21.10;95.00;;;;;;4946964;29;20098;-36
2022/06/12 11:47:38;;;;;;;4.07;1.45;;;21.10;94.80;;;;;;4947560;29;20502;-35
2022/06/12 11:50:23;;;;;;;3.72;1.52;;;21.10;94.80;;;;;;4947040;29;20557;-35
2022/06/12 11:53:06;;;;;;;4.43;1.50;;;21.30;94.70;;;;;;4947726;28;20039;-33
2022/06/12 11:55:44;;;;;;;5.97;1.85;;;21.50;94.60;;;;;;4947468;29;20047;-35
2022/06/12 11:58:35;;;;;;;5.20;1.83;;;21.50;94.30;;;;;;4947680;28;20023;-35
2022/06/12 12:01:20;;;;;;;4.30;1.50;;;21.70;94.00;;;;;;4948139;28;20344;-34
2022/06/12 12:04:08;;;;;;;5.88;1.55;;;21.90;93.60;;;;;;4947945;28;20027;-35
2022/06/12 12:06:39;;;;;;;3.97;1.35;;;22.10;93.30;;;;;;4927987;29;20040;-36
2022/06/12 12:09:10;;;;;;;5.13;1.35;;;22.30;92.90;;;;;;4946250;29;21253;-35
2022/06/12 12:11:44;;;;;;;2.95;1.50;;;22.40;92.50;;;;;;4946648;28;20435;-34
2022/06/12 12:14:20;;;;;;;5.20;1.77;;;22.50;92.40;;;;;;4948078;28;20102;-35
2022/06/12 12:17:03;;;;;;;6.20;1.75;;;22.60;91.70;;;;;;4948069;28;20503;-35
2022/06/12 12:19:54;;;;;;;3.20;1.50;;;22.70;91.90;;;;;;4947287;28;20023;-35
2022/06/12 12:22:37;;;;;;;5.35;1.90;;;22.80;91.10;;;;;;4945302;29;20533;-34
2022/06/12 12:25:34;;;;;;;2.78;1.15;;;22.80;91.30;;;;;;4946795;29;20078;-35
2022/06/12 12:28:14;;;;;;;2.90;1.42;;;22.90;91.00;;;;;;4947221;28;20483;-35
2022/06/12 12:30:42;;;;;;;3.60;1.50;;;22.90;90.80;;;;;;4946950;28;20106;-34
2022/06/12 12:33:14;;;;;;;3.38;1.17;;;22.90;90.20;;;;;;4946724;28;20118;-35
2022/06/12 12:41:39;;;;;;;1.63;0.90;;;22.80;89.70;;;;;;4937321;29;20077;-35
2022/06/12 12:44:05;;;;;;;3.78;1.40;;;22.80;89.60;;;;;;4946919;28;20542;-36
2022/06/12 12:47:05;;;;;;;3.08;1.20;;;22.80;86.90;;;;;;4945725;28;20043;-36
2022/06/12 12:49:33;;;;;;;2.80;1.20;;;22.80;86.60;;;;;;4942273;29;20389;-34
2022/06/12 12:52:05;;;;;;;4.18;1.63;;;22.80;85.80;;;;;;4947857;28;20031;-35
2022/06/12 12:54:42;;;;;;;2.85;1.10;;;22.80;86.60;;;;;;4945226;29;20078;-34
2022/06/12 12:57:08;;;;;;;3.63;1.20;;;22.80;85.70;;;;;;4947809;28;20024;-35
2022/06/12 12:59:35;;;;;;;3.63;1.23;;;22.80;83.50;;;;;;4946514;29;20050;-35
2022/06/12 13:02:30;;;;;;;4.93;1.20;;;22.80;82.40;;;;;;4946519;29;20034;-35
2022/06/12 13:04:59;;;;;;;3.90;1.13;;;22.80;83.50;;;;;;4947349;28;20030;-36
2022/06/12 13:07:47;;;;;;;2.15;1.10;;;22.80;82.10;;;;;;4947023;28;20035;-34
2022/06/12 13:10:33;;;;;;;2.38;0.88;;;22.80;80.60;;;;;;4947696;28;20066;-36
2022/06/12 13:13:31;;;;;;;3.88;1.00;;;22.70;79.40;;;;;;4947783;29;20118;-35
2022/06/12 13:15:59;;;;;;;2.33;0.75;;;22.50;79.40;;;;;;4946442;28;20075;-34
2022/06/12 13:18:47;;;;;;;3.10;1.17;;;22.60;80.70;;;;;;4947328;29;20023;-35
2022/06/12 13:21:45;;;;;;;1.73;0.90;;;22.70;79.10;;;;;;4947120;28;20035;-36
2022/06/12 13:24:36;;;;;;;1.98;0.80;;;22.80;79.40;;;;;;4929385;28;20043;-35
2022/06/12 13:27:31;;;;;;;1.58;0.70;;;22.80;79.30;;;;;;4948039;29;20023;-35
2022/06/12 13:29:56;;;;;;;2.25;0.80;;;22.90;77.70;;;;;;4947312;28;20055;-33
2022/06/12 13:32:28;;;;;;;1.33;0.60;;;22.80;77.70;;;;;;4946911;29;20027;-34
2022/06/12 13:35:07;;;;;;;2.15;1.02;;;22.80;78.00;;;;;;4947899;28;20050;-34
2022/06/12 13:37:36;;;;;;;1.63;0.80;;;22.90;78.00;;;;;;4946636;28;20166;-35
2022/06/12 13:40:20;;;;;;;3.45;1.35;;;23.00;78.40;;;;;;4947220;29;20039;-34
2022/06/12 13:42:46;;;;;;;1.73;0.70;;;23.10;78.00;;;;;;4946736;29;20446;-35